Topsail Beach, North Carolina
Current Conditions -  °F | °C
As of 12:56 AM on Friday 31 Oct 2014 (Local Time) from KNCA Reporting Station
Clear Clear  
Wind Chill: 12°   Ceiling: Unl
Heat Index: 12°   Visibility: 10mi
Dew Point: 10°   Wind: 8mph
Humidity: 86%   Direction: 30°NNE
Pressure: 29.94"   Gusts: NA
Location:  34.4895°N, 77.514°W
Report Text: KNCA 310456Z AUTO 03007KT 10SM CLR 12/10 A2994 RMK AO2 SLP142 T01220100 402060122
Loading
Personal Weather Stations






























Interactive Weather Map
Tropical Storm Tracking
New forecast layout! Learn more

10-Day Weather Forecast

Advertisements
Track Severe Weather on mobile